LOWK METAR and TAF | Updated Today

LOWK METAR

Klagenfurt Airport

Observation time: 27 min. ago

LOWK 200750Z AUTO VRB01KT CAVOK 20/11 Q1026 NOSIG

Need help? Read our tutorial on how to read METARs or read the parsed version below.

Klagenfurt Airport (LOWK) METAR

  • Weather conditions on Fri, 20 May 2022 07:50:00 +0000 (27 min. ago):
  • Present conditions: Dry
  • Clouds: Clear skies
  • Visibility: Greater than 10 km
  • Wind: Variable at 1 knots
  • Temperature: 20 celsius
  • Dew point: 11 celsius
  • Pressure: 1026 millibars
  • Remarks: None


Useful to know...

LOWK TAF

Klagenfurt Airport

TAF LOWK 200515Z 2006/2106 VRB04KT 9999 FEW060 TX29/2015Z TN16/2103Z TEMPO 2014/2018 20008KT
Observation time: 3:02 hr. ago
Need help? Read our tutorial on how to read TAFs or read the parsed version below.

Parsed version of TAF for Klagenfurt Airport (LOWK)

  • From 20 May at 06:00 UTC, to day 21 of the month at 06:00 UTC
  • Clouds: A few at 1829 meters
  • Visibility: Greater than 10 km
  • Wind: Variable at 4
  • Expected to arise temporarily, from 20 May at 14:00 UTC, to day 20 of the month at 18:00 UTC
  • Wind: 200 degrees at 8